createdAt,value
2017-05-13T00:00:15.017Z,0
2017-05-13T00:01:15.056Z,0
2017-05-13T00:02:15.712Z,0
2017-05-13T00:03:15.755Z,0
2017-05-13T00:04:15.487Z,0
2017-05-13T00:05:15.519Z,0
2017-05-13T00:06:15.252Z,0
2017-05-13T00:07:15.834Z,0
2017-05-13T00:08:15.343Z,0
2017-05-13T00:09:15.684Z,0
2017-05-13T00:10:15.412Z,0
2017-05-13T00:11:15.459Z,0
2017-05-13T00:12:15.495Z,0
2017-05-13T00:13:15.528Z,0
2017-05-13T00:14:16.196Z,0
2017-05-13T00:15:15.611Z,0
2017-05-13T00:16:15.652Z,0
2017-05-13T00:17:15.689Z,0
2017-05-13T00:18:15.737Z,0
2017-05-13T00:19:15.766Z,0
2017-05-13T00:20:15.801Z,0
2017-05-13T00:21:15.850Z,0
2017-05-13T00:22:16.223Z,0
2017-05-13T00:23:16.230Z,0
2017-05-13T00:24:15.962Z,0
2017-05-13T00:25:16.305Z,0
2017-05-13T00:26:16.041Z,0
2017-05-13T00:27:16.082Z,0
2017-05-13T00:28:16.115Z,0
2017-05-13T00:29:16.168Z,0
2017-05-13T00:30:16.502Z,0
2017-05-13T00:31:16.238Z,0
2017-05-13T00:32:16.591Z,0
2017-05-13T00:33:16.311Z,0
2017-05-13T00:34:16.660Z,0
2017-05-13T00:35:16.397Z,0
2017-05-13T00:36:16.738Z,0
2017-05-13T00:37:17.095Z,0
2017-05-13T00:38:16.515Z,0
2017-05-13T00:39:16.556Z,0
2017-05-13T00:40:16.589Z,0
2017-05-13T00:41:16.940Z,0
2017-05-13T00:42:16.676Z,0
2017-05-13T00:43:16.704Z,0
2017-05-13T00:44:17.052Z,0
2017-05-13T00:45:17.089Z,0
2017-05-13T00:46:16.820Z,0
2017-05-13T00:47:16.866Z,0
2017-05-13T00:48:16.902Z,0
2017-05-13T00:49:16.941Z,0
2017-05-13T00:50:17.293Z,0
2017-05-13T00:51:17.015Z,0
2017-05-13T00:52:17.367Z,0
2017-05-13T00:53:17.408Z,0
2017-05-13T00:54:17.450Z,0
2017-05-13T00:55:17.483Z,0
2017-05-13T00:56:17.222Z,0
2017-05-13T00:57:17.260Z,0
2017-05-13T00:58:17.910Z,0
2017-05-13T00:59:17.645Z,0
2017-05-13T01:00:17.683Z,0
2017-05-13T01:01:17.415Z,0
2017-05-13T01:02:17.461Z,0
2017-05-13T01:03:18.111Z,0
2017-05-13T01:04:17.848Z,0
2017-05-13T01:05:17.875Z,0
2017-05-13T01:06:17.610Z,0
2017-05-13T01:07:17.953Z,0
2017-05-13T01:08:17.694Z,0
2017-05-13T01:09:18.036Z,0
2017-05-13T01:10:18.069Z,0
2017-05-13T01:11:18.416Z,0
2017-05-13T01:12:18.151Z,0
2017-05-13T01:13:18.196Z,0
2017-05-13T01:14:17.923Z,0
2017-05-13T01:15:18.575Z,0
2017-05-13T01:16:18.313Z,0
2017-05-13T01:17:18.037Z,0
2017-05-13T01:18:18.398Z,0
2017-05-13T01:19:18.122Z,0
2017-05-13T01:20:18.467Z,0
2017-05-13T01:21:18.505Z,0
2017-05-13T01:22:18.849Z,0
2017-05-13T01:23:18.277Z,0
2017-05-13T01:24:18.627Z,0
2017-05-13T01:25:18.656Z,0
2017-05-13T01:26:18.706Z,0
2017-05-13T01:27:18.745Z,0
2017-05-13T01:28:18.815Z,0
2017-05-13T01:29:18.819Z,0
2017-05-13T01:30:18.551Z,0
2017-05-13T01:31:18.893Z,0
2017-05-13T01:32:18.937Z,0
2017-05-13T01:33:19.020Z,0
2017-05-13T01:34:19.336Z,0
2017-05-13T01:35:18.737Z,0
2017-05-13T01:36:18.783Z,0
2017-05-13T01:37:19.131Z,0
2017-05-13T01:38:19.171Z,0
2017-05-13T01:39:18.903Z,0
2017-05-13T01:40:19.259Z,0
2017-05-13T01:41:18.978Z,0
2017-05-13T01:42:19.948Z,0
2017-05-13T01:43:19.053Z,0
2017-05-13T01:44:19.103Z,0
2017-05-13T01:45:19.159Z,0
2017-05-13T01:46:19.182Z,0
2017-05-13T01:47:19.532Z,0
2017-05-13T01:48:19.562Z,0
2017-05-13T01:49:19.597Z,0
2017-05-13T01:50:19.941Z,0
2017-05-13T01:51:19.375Z,0
2017-05-13T01:52:19.713Z,0
2017-05-13T01:53:19.749Z,0
2017-05-13T01:54:19.482Z,0
2017-05-13T01:55:19.831Z,0
2017-05-13T01:56:19.870Z,0
2017-05-13T01:57:19.605Z,0
2017-05-13T01:58:21.671Z,0
2017-05-13T01:59:19.680Z,0
2017-05-13T02:00:20.037Z,0
2017-05-13T02:01:19.762Z,0
2017-05-13T02:02:19.796Z,0
2017-05-13T02:03:19.834Z,0
2017-05-13T02:04:20.507Z,0
2017-05-13T02:05:19.911Z,0
2017-05-13T02:06:19.947Z,0
2017-05-13T02:07:20.305Z,0
2017-05-13T02:08:20.024Z,0
2017-05-13T02:09:20.688Z,0
2017-05-13T02:10:20.417Z,0
2017-05-13T02:11:20.472Z,0
2017-05-13T02:12:20.500Z,0
2017-05-13T02:13:20.839Z,0
2017-05-13T02:14:20.571Z,0
2017-05-13T02:15:20.310Z,0
2017-05-13T02:16:20.340Z,0
2017-05-13T02:17:20.386Z,0
2017-05-13T02:18:20.729Z,0
2017-05-13T02:19:20.458Z,0
2017-05-13T02:20:20.497Z,0
2017-05-13T02:21:20.846Z,0
2017-05-13T02:22:21.205Z,0
2017-05-13T02:23:21.557Z,0
2017-05-13T02:24:20.973Z,0
2017-05-13T02:25:20.691Z,0
2017-05-13T02:26:21.044Z,0
2017-05-13T02:27:20.769Z,0
2017-05-13T02:28:20.832Z,0
2017-05-13T02:29:20.854Z,0
2017-05-13T02:30:21.508Z,0
2017-05-13T02:31:21.233Z,0
2017-05-13T02:32:20.968Z,0
2017-05-13T02:33:21.323Z,0
2017-05-13T02:34:21.349Z,0
2017-05-13T02:35:21.087Z,0
2017-05-13T02:36:21.447Z,0
2017-05-13T02:37:21.784Z,0
2017-05-13T02:38:21.534Z,0
2017-05-13T02:39:21.552Z,0
2017-05-13T02:40:21.585Z,0
2017-05-13T02:41:21.635Z,0
2017-05-13T02:42:21.657Z,0
2017-05-13T02:43:21.709Z,0
2017-05-13T02:44:22.063Z,0
2017-05-13T02:45:21.473Z,0
2017-05-13T02:46:21.824Z,0
2017-05-13T02:47:21.863Z,0
2017-05-13T02:48:21.592Z,0
2017-05-13T02:49:21.944Z,4
2017-05-13T02:50:22.283Z,4
2017-05-13T02:51:22.018Z,4
2017-05-13T02:52:22.367Z,0
2017-05-13T02:53:22.128Z,0
2017-05-13T02:54:22.125Z,4
2017-05-13T02:55:21.868Z,4
2017-05-13T02:56:21.902Z,4
2017-05-13T02:57:21.974Z,4
2017-05-13T02:58:21.981Z,4
2017-05-13T02:59:22.640Z,4
2017-05-13T03:00:22.361Z,4
2017-05-13T03:01:22.717Z,4
2017-05-13T03:02:22.136Z,4
2017-05-13T03:03:22.173Z,4
2017-05-13T03:04:22.834Z,4
2017-05-13T03:05:22.561Z,4
2017-05-13T03:06:22.608Z,8
2017-05-13T03:07:22.332Z,8
2017-05-13T03:08:22.674Z,4
2017-05-13T03:09:22.721Z,8
2017-05-13T03:10:22.752Z,12
2017-05-13T03:11:22.495Z,12
2017-05-13T03:12:22.536Z,16
2017-05-13T03:13:22.874Z,16
2017-05-13T03:14:23.229Z,20
2017-05-13T03:15:22.948Z,20
2017-05-13T03:16:22.999Z,20
2017-05-13T03:17:22.719Z,20
2017-05-13T03:18:22.764Z,20
2017-05-13T03:19:22.803Z,24
2017-05-13T03:20:23.151Z,28
2017-05-13T03:21:22.897Z,32
2017-05-13T03:22:23.231Z,36
2017-05-13T03:23:22.958Z,44
2017-05-13T03:24:23.305Z,52
2017-05-13T03:25:23.345Z,60
2017-05-13T03:26:23.075Z,68
2017-05-13T03:27:23.731Z,72
2017-05-13T03:28:23.150Z,76
2017-05-13T03:29:23.808Z,80
2017-05-13T03:30:23.535Z,80
2017-05-13T03:31:23.575Z,88
2017-05-13T03:32:23.613Z,92
2017-05-13T03:33:23.658Z,92
2017-05-13T03:34:23.376Z,92
2017-05-13T03:35:23.735Z,96
2017-05-13T03:36:23.468Z,96
2017-05-13T03:37:24.117Z,100
2017-05-13T03:38:24.158Z,104
2017-05-13T03:39:24.510Z,112
2017-05-13T03:40:23.637Z,116
2017-05-13T03:41:23.653Z,120
2017-05-13T03:42:24.021Z,128
2017-05-13T03:43:24.347Z,136
2017-05-13T03:44:23.774Z,140
2017-05-13T03:45:23.815Z,140
2017-05-13T03:46:24.158Z,148
2017-05-13T03:47:23.893Z,148
2017-05-13T03:48:24.256Z,152
2017-05-13T03:49:24.320Z,160
2017-05-13T03:50:24.010Z,168
2017-05-13T03:51:24.349Z,176
2017-05-13T03:52:24.084Z,184
2017-05-13T03:53:24.120Z,196
2017-05-13T03:54:24.164Z,204
2017-05-13T03:55:24.204Z,216
2017-05-13T03:56:24.235Z,232
2017-05-13T03:57:24.594Z,252
2017-05-13T03:58:24.618Z,276
2017-05-13T03:59:24.666Z,296
2017-05-13T04:00:25.017Z,316
2017-05-13T04:01:24.745Z,336
2017-05-13T04:02:24.781Z,360
2017-05-13T04:03:24.552Z,380
2017-05-13T04:04:24.853Z,400
2017-05-13T04:05:24.588Z,416
2017-05-13T04:06:24.631Z,440
2017-05-13T04:07:24.991Z,464
2017-05-13T04:08:25.017Z,488
2017-05-13T04:09:25.683Z,512
2017-05-13T04:10:25.089Z,536
2017-05-13T04:11:24.829Z,560
2017-05-13T04:12:25.476Z,580
2017-05-13T04:13:25.519Z,592
2017-05-13T04:14:25.551Z,592
2017-05-13T04:15:25.000Z,592
2017-05-13T04:16:25.373Z,580
2017-05-13T04:17:25.055Z,580
2017-05-13T04:18:25.097Z,564
2017-05-13T04:19:25.795Z,556
2017-05-13T04:20:25.173Z,544
2017-05-13T04:21:25.521Z,536
2017-05-13T04:22:25.558Z,536
2017-05-13T04:23:25.289Z,540
2017-05-13T04:24:25.979Z,540
2017-05-13T04:25:25.370Z,544
2017-05-13T04:26:25.405Z,536
2017-05-13T04:27:25.754Z,528
2017-05-13T04:28:25.484Z,528
2017-05-13T04:29:25.839Z,532
2017-05-13T04:30:25.867Z,536
2017-05-13T04:31:26.212Z,536
2017-05-13T04:32:25.980Z,536
2017-05-13T04:33:26.017Z,548
2017-05-13T04:34:25.726Z,556
2017-05-13T04:35:25.750Z,568
2017-05-13T04:36:25.803Z,572
2017-05-13T04:37:26.141Z,564
2017-05-13T04:38:25.878Z,568
2017-05-13T04:39:25.917Z,588
2017-05-13T04:40:25.949Z,616
2017-05-13T04:41:26.298Z,640
2017-05-13T04:42:26.338Z,652
2017-05-13T04:43:26.374Z,648
2017-05-13T04:44:26.724Z,624
2017-05-13T04:45:26.146Z,612
2017-05-13T04:46:26.183Z,604
2017-05-13T04:47:26.884Z,608
2017-05-13T04:48:26.573Z,616
2017-05-13T04:49:26.936Z,628
2017-05-13T04:50:26.373Z,644
2017-05-13T04:51:26.999Z,656
2017-05-13T04:52:26.732Z,668
2017-05-13T04:53:27.078Z,680
2017-05-13T04:54:26.805Z,684
2017-05-13T04:55:26.546Z,688
2017-05-13T04:56:26.585Z,696
2017-05-13T04:57:26.615Z,724
2017-05-13T04:58:26.652Z,752
2017-05-13T04:59:27.307Z,776
2017-05-13T05:00:27.343Z,816
2017-05-13T05:01:27.380Z,832
2017-05-13T05:02:26.809Z,836
2017-05-13T05:03:26.848Z,856
2017-05-13T05:04:27.200Z,896
2017-05-13T05:05:26.930Z,932
2017-05-13T05:06:26.966Z,964
2017-05-13T05:07:27.624Z,1000
2017-05-13T05:08:27.048Z,1036
2017-05-13T05:09:27.416Z,1088
2017-05-13T05:10:27.730Z,1164
2017-05-13T05:11:27.158Z,1244
2017-05-13T05:12:27.199Z,1348
2017-05-13T05:13:27.234Z,1476
2017-05-13T05:14:27.896Z,1632
2017-05-13T05:15:27.308Z,1800
2017-05-13T05:16:27.969Z,1968
2017-05-13T05:17:27.397Z,2116
2017-05-13T05:18:27.432Z,2228
2017-05-13T05:19:27.468Z,2328
2017-05-13T05:20:27.514Z,2396
2017-05-13T05:21:27.551Z,2452
2017-05-13T05:22:27.946Z,2504
2017-05-13T05:23:27.932Z,2560
2017-05-13T05:24:27.674Z,2632
2017-05-13T05:25:27.707Z,2740
2017-05-13T05:26:27.748Z,2880
2017-05-13T05:27:27.780Z,3076
2017-05-13T05:28:27.871Z,3284
2017-05-13T05:29:27.857Z,3492
2017-05-13T05:30:28.204Z,3716
2017-05-13T05:31:28.595Z,3928
2017-05-13T05:32:27.986Z,4180
2017-05-13T05:33:28.044Z,4496
2017-05-13T05:34:28.677Z,4808
2017-05-13T05:35:28.405Z,5036
2017-05-13T05:36:28.442Z,5256
2017-05-13T05:37:28.185Z,5440
2017-05-13T05:38:28.212Z,5628
2017-05-13T05:39:28.584Z,5840
2017-05-13T05:40:28.306Z,6036
2017-05-13T05:41:28.361Z,6264
2017-05-13T05:42:28.373Z,6512
2017-05-13T05:43:28.732Z,6812
2017-05-13T05:44:28.452Z,7180
2017-05-13T05:45:28.491Z,7568
2017-05-13T05:46:29.147Z,7980
2017-05-13T05:47:28.573Z,8276
2017-05-13T05:48:28.610Z,8564
2017-05-13T05:49:28.654Z,8800
2017-05-13T05:50:28.684Z,8756
2017-05-13T05:51:29.350Z,8444
2017-05-13T05:52:28.789Z,8036
2017-05-13T05:53:29.130Z,7652
2017-05-13T05:54:28.851Z,7284
2017-05-13T05:55:28.935Z,6976
2017-05-13T05:56:29.244Z,6740
2017-05-13T05:57:29.308Z,6484
2017-05-13T05:58:29.012Z,6200
2017-05-13T05:59:29.668Z,5944
2017-05-13T06:00:29.406Z,5776
2017-05-13T06:01:29.432Z,5804
2017-05-13T06:02:29.489Z,5824
2017-05-13T06:03:29.826Z,5816
2017-05-13T06:04:29.292Z,5848
2017-05-13T06:05:29.317Z,5836
2017-05-13T06:06:29.399Z,5616
2017-05-13T06:07:29.367Z,5336
2017-05-13T06:08:30.037Z,5184
2017-05-13T06:09:29.805Z,5204
2017-05-13T06:10:29.805Z,5288
2017-05-13T06:11:29.532Z,5412
2017-05-13T06:12:29.905Z,5608
2017-05-13T06:13:29.915Z,5768
2017-05-13T06:14:29.962Z,5844
2017-05-13T06:15:30.003Z,5916
2017-05-13T06:16:30.061Z,6220
2017-05-13T06:17:30.080Z,6664
2017-05-13T06:18:30.120Z,7160
2017-05-13T06:19:29.861Z,7672
2017-05-13T06:20:29.894Z,8180
2017-05-13T06:21:29.938Z,8760
2017-05-13T06:22:30.590Z,9588
2017-05-13T06:23:30.656Z,10412
2017-05-13T06:24:30.364Z,11212
2017-05-13T06:25:30.399Z,12192
2017-05-13T06:26:30.471Z,12328
2017-05-13T06:27:30.169Z,12600
2017-05-13T06:28:30.518Z,12436
2017-05-13T06:29:30.874Z,12216
2017-05-13T06:30:30.297Z,12028
2017-05-13T06:31:30.354Z,11928
2017-05-13T06:32:30.692Z,12000
2017-05-13T06:33:30.417Z,12272
2017-05-13T06:34:30.775Z,12660
2017-05-13T06:35:30.815Z,13088
2017-05-13T06:36:30.846Z,13476
2017-05-13T06:37:30.898Z,13752
2017-05-13T06:38:30.927Z,13728
2017-05-13T06:39:30.672Z,12700
2017-05-13T06:40:30.706Z,11664
2017-05-13T06:41:31.051Z,10776
2017-05-13T06:42:31.116Z,10192
2017-05-13T06:43:31.439Z,9972
2017-05-13T06:44:31.176Z,10028
2017-05-13T06:45:30.909Z,10360
2017-05-13T06:46:31.264Z,10972
2017-05-13T06:47:30.993Z,11616
2017-05-13T06:48:31.646Z,12252
2017-05-13T06:49:31.382Z,12828
2017-05-13T06:50:31.731Z,13324
2017-05-13T06:51:31.166Z,13896
2017-05-13T06:52:31.508Z,14100
2017-05-13T06:53:31.862Z,13912
2017-05-13T06:54:31.302Z,14044
2017-05-13T06:55:31.328Z,17120
2017-05-13T06:56:31.380Z,14500
2017-05-13T06:57:31.725Z,14908
2017-05-13T06:58:31.459Z,15268
2017-05-13T06:59:31.498Z,14480
2017-05-13T07:00:31.549Z,12684
2017-05-13T07:01:31.581Z,10988
2017-05-13T07:02:31.631Z,9744
2017-05-13T07:03:32.292Z,9228
2017-05-13T07:04:31.712Z,9104
2017-05-13T07:05:32.060Z,9256
2017-05-13T07:06:31.796Z,9396
2017-05-13T07:07:32.151Z,9516
2017-05-13T07:08:31.885Z,9476
2017-05-13T07:09:32.225Z,9608
2017-05-13T07:10:31.966Z,10096
2017-05-13T07:11:32.011Z,10556
2017-05-13T07:12:32.660Z,10220
2017-05-13T07:13:32.137Z,9404
2017-05-13T07:14:32.130Z,9240
2017-05-13T07:15:32.483Z,9332
2017-05-13T07:16:32.222Z,9172
2017-05-13T07:17:32.256Z,9296
2017-05-13T07:18:32.298Z,9348
2017-05-13T07:19:32.354Z,9852
2017-05-13T07:20:32.401Z,10108
2017-05-13T07:21:32.732Z,9900
2017-05-13T07:22:33.086Z,9624
2017-05-13T07:23:32.515Z,9892
2017-05-13T07:24:32.556Z,9852
2017-05-13T07:25:32.896Z,9424
2017-05-13T07:26:32.639Z,8992
2017-05-13T07:27:33.599Z,8712
2017-05-13T07:28:32.745Z,8936
2017-05-13T07:29:32.767Z,9364
2017-05-13T07:30:33.131Z,9480
2017-05-13T07:31:32.841Z,9212
2017-05-13T07:32:32.891Z,8996
2017-05-13T07:33:32.925Z,8880
2017-05-13T07:34:33.277Z,8844
2017-05-13T07:35:33.333Z,9196
2017-05-13T07:36:33.057Z,9648
2017-05-13T07:37:33.096Z,10052
2017-05-13T07:38:33.141Z,10036
2017-05-13T07:39:33.181Z,9792
2017-05-13T07:40:33.247Z,9648
2017-05-13T07:41:33.271Z,9848
2017-05-13T07:42:33.613Z,10152
2017-05-13T07:43:33.679Z,10852
2017-05-13T07:44:33.700Z,11604
2017-05-13T07:45:33.436Z,12216
2017-05-13T07:46:33.784Z,12752
2017-05-13T07:47:33.833Z,13104
2017-05-13T07:48:33.870Z,13560
2017-05-13T07:49:33.910Z,14116
2017-05-13T07:50:33.944Z,14456
2017-05-13T07:51:33.692Z,14428
2017-05-13T07:52:33.730Z,13708
2017-05-13T07:53:33.779Z,12556
2017-05-13T07:54:34.435Z,11384
2017-05-13T07:55:34.165Z,10800
2017-05-13T07:56:33.901Z,10424
2017-05-13T07:57:33.936Z,10384
2017-05-13T07:58:33.986Z,10716
2017-05-13T07:59:34.039Z,11500
2017-05-13T08:00:34.109Z,12616
2017-05-13T08:01:34.115Z,13996
2017-05-13T08:02:34.152Z,15228
2017-05-13T08:03:34.497Z,16360
2017-05-13T08:04:34.548Z,16180
2017-05-13T08:05:34.283Z,16108
2017-05-13T08:06:34.330Z,16152
2017-05-13T08:07:34.670Z,17280
2017-05-13T08:08:34.406Z,19168
2017-05-13T08:09:34.757Z,22976
2017-05-13T08:10:34.810Z,30976
2017-05-13T08:11:34.549Z,32864
2017-05-13T08:12:34.576Z,23808
2017-05-13T08:13:35.254Z,27456
2017-05-13T08:14:34.667Z,24896
2017-05-13T08:15:35.018Z,24128
2017-05-13T08:16:35.071Z,24096
2017-05-13T08:17:34.804Z,25984
2017-05-13T08:18:34.848Z,43072
2017-05-13T08:19:35.192Z,28288
2017-05-13T08:20:34.935Z,27872
2017-05-13T08:21:34.980Z,33408
2017-05-13T08:22:35.640Z,59296
2017-05-13T08:23:35.082Z,37920
2017-05-13T08:24:35.116Z,32416
2017-05-13T08:25:35.785Z,45920
2017-05-13T08:26:35.208Z,55104
2017-05-13T08:27:35.293Z,38176
2017-05-13T08:28:35.303Z,38752
2017-05-13T08:29:35.347Z,38208
2017-05-13T08:30:35.699Z,39008
2017-05-13T08:31:35.744Z,43648
2017-05-13T08:32:35.492Z,46240
2017-05-13T08:33:35.843Z,25824
2017-05-13T08:34:35.588Z,29472
2017-05-13T08:35:35.945Z,51584
2017-05-13T08:36:35.684Z,48032
2017-05-13T08:37:36.356Z,38272
2017-05-13T08:38:35.772Z,41152
2017-05-13T08:39:35.829Z,23392
2017-05-13T08:40:36.179Z,21216
2017-05-13T08:41:36.240Z,24096
2017-05-13T08:42:36.271Z,21856
2017-05-13T08:43:36.020Z,22848
2017-05-13T08:44:36.373Z,18048
2017-05-13T08:45:36.108Z,16576
2017-05-13T08:46:36.788Z,16640
2017-05-13T08:47:36.208Z,16704
2017-05-13T08:48:36.255Z,17888
2017-05-13T08:49:36.917Z,21504
2017-05-13T08:50:36.659Z,30880
